sensor_id;sensor_type;location;lat;lon;timestamp;P1;durP1;ratioP1;P2;durP2;ratioP2
76053;SDS011;64752;48.870;9.082;2023-05-10T00:00:04;0.70;;;0.20;;
76053;SDS011;64752;48.870;9.082;2023-05-10T00:02:30;0.40;;;0.10;;
76053;SDS011;64752;48.870;9.082;2023-05-10T00:04:55;4.07;;;0.90;;
76053;SDS011;64752;48.870;9.082;2023-05-10T00:07:20;1.65;;;0.20;;
76053;SDS011;64752;48.870;9.082;2023-05-10T00:09:46;1.95;;;0.55;;
76053;SDS011;64752;48.870;9.082;2023-05-10T00:12:11;0.52;;;0.30;;
76053;SDS011;64752;48.870;9.082;2023-05-10T00:14:37;0.67;;;0.20;;
76053;SDS011;64752;48.870;9.082;2023-05-10T00:17:02;7.47;;;0.30;;
76053;SDS011;64752;48.870;9.082;2023-05-10T00:19:27;0.45;;;0.20;;
76053;SDS011;64752;48.870;9.082;2023-05-10T00:21:53;0.20;;;0.20;;
76053;SDS011;64752;48.870;9.082;2023-05-10T00:24:18;0.55;;;0.20;;
76053;SDS011;64752;48.870;9.082;2023-05-10T00:26:43;0.10;;;0.10;;
76053;SDS011;64752;48.870;9.082;2023-05-10T00:29:09;0.20;;;0.20;;
76053;SDS011;64752;48.870;9.082;2023-05-10T00:31:35;0.17;;;0.17;;
76053;SDS011;64752;48.870;9.082;2023-05-10T00:34:00;0.10;;;0.10;;
76053;SDS011;64752;48.870;9.082;2023-05-10T00:36:25;2.28;;;0.38;;
76053;SDS011;64752;48.870;9.082;2023-05-10T00:38:51;0.23;;;0.23;;
76053;SDS011;64752;48.870;9.082;2023-05-10T00:41:16;0.20;;;0.20;;
76053;SDS011;64752;48.870;9.082;2023-05-10T00:43:41;0.55;;;0.25;;
76053;SDS011;64752;48.870;9.082;2023-05-10T00:46:07;2.60;;;0.30;;
76053;SDS011;64752;48.870;9.082;2023-05-10T00:48:32;1.20;;;0.40;;
76053;SDS011;64752;48.870;9.082;2023-05-10T00:51:00;0.22;;;0.22;;
76053;SDS011;64752;48.870;9.082;2023-05-10T00:55:51;0.90;;;0.50;;
76053;SDS011;64752;48.870;9.082;2023-05-10T00:58:17;0.43;;;0.43;;
76053;SDS011;64752;48.870;9.082;2023-05-10T01:00:42;0.50;;;0.50;;
76053;SDS011;64752;48.870;9.082;2023-05-10T01:03:11;3.10;;;0.73;;
76053;SDS011;64752;48.870;9.082;2023-05-10T01:05:37;2.78;;;0.80;;
76053;SDS011;64752;48.870;9.082;2023-05-10T01:08:02;0.70;;;0.70;;
76053;SDS011;64752;48.870;9.082;2023-05-10T01:10:28;2.55;;;0.77;;
76053;SDS011;64752;48.870;9.082;2023-05-10T01:12:54;1.85;;;0.82;;
76053;SDS011;64752;48.870;9.082;2023-05-10T01:15:19;0.90;;;0.80;;
76053;SDS011;64752;48.870;9.082;2023-05-10T01:17:46;1.05;;;0.80;;
76053;SDS011;64752;48.870;9.082;2023-05-10T01:20:13;2.35;;;0.80;;
76053;SDS011;64752;48.870;9.082;2023-05-10T01:33:35;2.10;;;1.20;;
76053;SDS011;64752;48.870;9.082;2023-05-10T01:36:19;2.22;;;1.20;;
76053;SDS011;64752;48.870;9.082;2023-05-10T01:41:48;1.08;;;1.08;;
76053;SDS011;64752;48.870;9.082;2023-05-10T01:44:28;1.65;;;1.10;;
76053;SDS011;64752;48.870;9.082;2023-05-10T01:49:56;1.20;;;1.10;;
76053;SDS011;64752;48.870;9.082;2023-05-10T01:52:26;1.60;;;1.25;;
76053;SDS011;64752;48.870;9.082;2023-05-10T01:55:01;1.30;;;1.02;;
76053;SDS011;64752;48.870;9.082;2023-05-10T01:57:34;4.75;;;1.20;;
76053;SDS011;64752;48.870;9.082;2023-05-10T02:00:02;1.35;;;1.08;;
76053;SDS011;64752;48.870;9.082;2023-05-10T02:02:29;1.50;;;1.40;;
76053;SDS011;64752;48.870;9.082;2023-05-10T02:04:58;2.22;;;1.42;;
76053;SDS011;64752;48.870;9.082;2023-05-10T02:07:24;1.77;;;1.40;;
76053;SDS011;64752;48.870;9.082;2023-05-10T02:09:53;2.42;;;1.63;;
76053;SDS011;64752;48.870;9.082;2023-05-10T02:12:19;3.33;;;1.43;;
76053;SDS011;64752;48.870;9.082;2023-05-10T02:17:12;3.30;;;1.80;;
76053;SDS011;64752;48.870;9.082;2023-05-10T02:19:38;2.03;;;1.63;;
76053;SDS011;64752;48.870;9.082;2023-05-10T02:22:07;2.10;;;1.85;;
76053;SDS011;64752;48.870;9.082;2023-05-10T02:24:33;2.45;;;2.22;;
76053;SDS011;64752;48.870;9.082;2023-05-10T02:27:01;1.98;;;1.80;;
76053;SDS011;64752;48.870;9.082;2023-05-10T02:29:28;3.28;;;1.85;;
76053;SDS011;64752;48.870;9.082;2023-05-10T02:31:56;3.28;;;1.80;;
76053;SDS011;64752;48.870;9.082;2023-05-10T02:34:22;1.95;;;1.75;;
76053;SDS011;64752;48.870;9.082;2023-05-10T02:36:50;2.80;;;2.20;;
76053;SDS011;64752;48.870;9.082;2023-05-10T02:39:17;2.17;;;1.98;;
76053;SDS011;64752;48.870;9.082;2023-05-10T02:41:46;1.90;;;1.70;;
76053;SDS011;64752;48.870;9.082;2023-05-10T02:44:14;2.70;;;1.80;;
76053;SDS011;64752;48.870;9.082;2023-05-10T02:46:42;2.53;;;1.50;;
76053;SDS011;64752;48.870;9.082;2023-05-10T02:49:08;2.45;;;1.67;;
76053;SDS011;64752;48.870;9.082;2023-05-10T02:51:34;3.38;;;1.95;;
76053;SDS011;64752;48.870;9.082;2023-05-10T02:54:04;1.45;;;1.35;;
76053;SDS011;64752;48.870;9.082;2023-05-10T02:56:35;2.45;;;1.60;;
76053;SDS011;64752;48.870;9.082;2023-05-10T02:59:04;1.70;;;1.60;;
76053;SDS011;64752;48.870;9.082;2023-05-10T03:01:30;4.15;;;1.95;;
76053;SDS011;64752;48.870;9.082;2023-05-10T03:03:55;2.95;;;2.15;;
76053;SDS011;64752;48.870;9.082;2023-05-10T03:06:21;5.22;;;2.30;;
76053;SDS011;64752;48.870;9.082;2023-05-10T03:08:46;3.15;;;2.20;;
76053;SDS011;64752;48.870;9.082;2023-05-10T03:11:23;3.25;;;2.20;;
76053;SDS011;64752;48.870;9.082;2023-05-10T03:14:16;4.00;;;2.33;;
76053;SDS011;64752;48.870;9.082;2023-05-10T03:19:55;4.15;;;2.50;;
76053;SDS011;64752;48.870;9.082;2023-05-10T03:22:26;2.65;;;2.38;;
76053;SDS011;64752;48.870;9.082;2023-05-10T03:24:56;2.75;;;2.53;;
76053;SDS011;64752;48.870;9.082;2023-05-10T03:27:23;3.20;;;2.80;;
76053;SDS011;64752;48.870;9.082;2023-05-10T03:29:51;6.43;;;2.88;;
76053;SDS011;64752;48.870;9.082;2023-05-10T03:32:18;4.18;;;2.80;;
76053;SDS011;64752;48.870;9.082;2023-05-10T03:34:43;2.75;;;2.40;;
76053;SDS011;64752;48.870;9.082;2023-05-10T03:37:09;3.05;;;2.75;;
76053;SDS011;64752;48.870;9.082;2023-05-10T03:39:34;3.85;;;2.40;;
76053;SDS011;64752;48.870;9.082;2023-05-10T03:42:00;4.28;;;2.40;;
76053;SDS011;64752;48.870;9.082;2023-05-10T03:44:25;2.72;;;1.88;;
76053;SDS011;64752;48.870;9.082;2023-05-10T03:46:51;2.03;;;1.80;;
76053;SDS011;64752;48.870;9.082;2023-05-10T03:49:16;2.63;;;2.08;;
76053;SDS011;64752;48.870;9.082;2023-05-10T03:51:42;2.60;;;2.17;;
76053;SDS011;64752;48.870;9.082;2023-05-10T03:54:08;3.40;;;2.70;;
76053;SDS011;64752;48.870;9.082;2023-05-10T03:56:33;6.07;;;2.45;;
76053;SDS011;64752;48.870;9.082;2023-05-10T03:58:59;2.92;;;2.17;;
76053;SDS011;64752;48.870;9.082;2023-05-10T04:01:24;2.50;;;2.00;;
76053;SDS011;64752;48.870;9.082;2023-05-10T04:03:49;2.88;;;2.17;;
76053;SDS011;64752;48.870;9.082;2023-05-10T04:06:15;3.43;;;2.00;;
76053;SDS011;64752;48.870;9.082;2023-05-10T04:08:40;2.90;;;2.08;;
76053;SDS011;64752;48.870;9.082;2023-05-10T04:11:06;4.05;;;2.08;;
76053;SDS011;64752;48.870;9.082;2023-05-10T04:13:32;3.67;;;2.30;;
76053;SDS011;64752;48.870;9.082;2023-05-10T04:15:58;4.70;;;2.58;;
76053;SDS011;64752;48.870;9.082;2023-05-10T04:18:23;4.60;;;3.05;;
76053;SDS011;64752;48.870;9.082;2023-05-10T04:20:48;4.78;;;2.92;;
76053;SDS011;64752;48.870;9.082;2023-05-10T04:23:14;3.00;;;2.45;;
76053;SDS011;64752;48.870;9.082;2023-05-10T04:25:41;4.53;;;2.08;;
76053;SDS011;64752;48.870;9.082;2023-05-10T04:28:06;3.70;;;2.17;;
76053;SDS011;64752;48.870;9.082;2023-05-10T04:30:32;7.13;;;2.25;;
76053;SDS011;64752;48.870;9.082;2023-05-10T04:32:57;6.20;;;2.13;;
76053;SDS011;64752;48.870;9.082;2023-05-10T04:35:23;4.10;;;1.65;;
76053;SDS011;64752;48.870;9.082;2023-05-10T04:37:48;7.30;;;2.45;;
76053;SDS011;64752;48.870;9.082;2023-05-10T04:40:14;3.50;;;1.98;;
76053;SDS011;64752;48.870;9.082;2023-05-10T04:42:39;2.33;;;1.73;;
76053;SDS011;64752;48.870;9.082;2023-05-10T04:45:06;4.35;;;1.98;;
76053;SDS011;64752;48.870;9.082;2023-05-10T04:47:32;3.73;;;2.33;;
76053;SDS011;64752;48.870;9.082;2023-05-10T04:49:57;2.28;;;2.00;;
76053;SDS011;64752;48.870;9.082;2023-05-10T04:52:23;3.28;;;2.20;;
76053;SDS011;64752;48.870;9.082;2023-05-10T04:54:49;2.83;;;1.90;;
76053;SDS011;64752;48.870;9.082;2023-05-10T04:57:14;3.17;;;1.90;;
76053;SDS011;64752;48.870;9.082;2023-05-10T04:59:40;4.00;;;2.00;;
76053;SDS011;64752;48.870;9.082;2023-05-10T05:02:05;4.85;;;1.80;;
76053;SDS011;64752;48.870;9.082;2023-05-10T05:04:30;2.17;;;1.58;;
76053;SDS011;64752;48.870;9.082;2023-05-10T05:06:56;2.67;;;1.80;;
76053;SDS011;64752;48.870;9.082;2023-05-10T05:09:25;3.05;;;1.73;;
76053;SDS011;64752;48.870;9.082;2023-05-10T05:11:53;2.40;;;1.67;;
76053;SDS011;64752;48.870;9.082;2023-05-10T05:14:18;5.78;;;2.13;;
76053;SDS011;64752;48.870;9.082;2023-05-10T05:19:11;5.57;;;1.60;;
76053;SDS011;64752;48.870;9.082;2023-05-10T05:21:36;3.10;;;1.52;;
76053;SDS011;64752;48.870;9.082;2023-05-10T05:24:02;1.73;;;1.63;;
76053;SDS011;64752;48.870;9.082;2023-05-10T05:26:27;6.23;;;1.80;;
76053;SDS011;64752;48.870;9.082;2023-05-10T05:28:52;2.33;;;1.83;;
76053;SDS011;64752;48.870;9.082;2023-05-10T05:31:19;5.50;;;1.98;;
76053;SDS011;64752;48.870;9.082;2023-05-10T05:33:45;3.72;;;2.53;;
76053;SDS011;64752;48.870;9.082;2023-05-10T05:36:10;2.67;;;2.13;;
76053;SDS011;64752;48.870;9.082;2023-05-10T05:38:36;3.83;;;2.20;;
76053;SDS011;64752;48.870;9.082;2023-05-10T05:41:01;3.00;;;2.17;;
76053;SDS011;64752;48.870;9.082;2023-05-10T05:43:28;6.78;;;2.95;;
76053;SDS011;64752;48.870;9.082;2023-05-10T05:48:19;7.93;;;2.15;;
76053;SDS011;64752;48.870;9.082;2023-05-10T05:50:45;2.20;;;2.00;;
76053;SDS011;64752;48.870;9.082;2023-05-10T05:53:11;5.57;;;1.90;;
76053;SDS011;64752;48.870;9.082;2023-05-10T05:55:36;5.35;;;2.22;;
76053;SDS011;64752;48.870;9.082;2023-05-10T05:58:02;2.70;;;1.97;;
76053;SDS011;64752;48.870;9.082;2023-05-10T06:00:28;7.40;;;2.03;;
76053;SDS011;64752;48.870;9.082;2023-05-10T06:02:53;4.18;;;1.73;;
76053;SDS011;64752;48.870;9.082;2023-05-10T06:05:18;5.37;;;2.27;;
76053;SDS011;64752;48.870;9.082;2023-05-10T06:07:45;4.03;;;2.10;;
76053;SDS011;64752;48.870;9.082;2023-05-10T06:10:10;2.42;;;1.95;;
76053;SDS011;64752;48.870;9.082;2023-05-10T06:12:36;3.13;;;2.20;;
76053;SDS011;64752;48.870;9.082;2023-05-10T06:15:02;3.63;;;1.80;;
76053;SDS011;64752;48.870;9.082;2023-05-10T06:17:28;2.70;;;2.10;;
76053;SDS011;64752;48.870;9.082;2023-05-10T06:19:53;5.03;;;2.03;;
76053;SDS011;64752;48.870;9.082;2023-05-10T06:22:19;3.40;;;1.93;;
76053;SDS011;64752;48.870;9.082;2023-05-10T06:24:44;3.60;;;1.90;;
76053;SDS011;64752;48.870;9.082;2023-05-10T06:27:09;2.60;;;2.00;;
76053;SDS011;64752;48.870;9.082;2023-05-10T06:29:35;5.50;;;1.90;;
76053;SDS011;64752;48.870;9.082;2023-05-10T06:32:00;4.80;;;1.58;;
76053;SDS011;64752;48.870;9.082;2023-05-10T06:34:26;4.00;;;1.50;;
76053;SDS011;64752;48.870;9.082;2023-05-10T06:36:51;1.97;;;1.60;;
76053;SDS011;64752;48.870;9.082;2023-05-10T06:39:17;3.13;;;1.43;;
76053;SDS011;64752;48.870;9.082;2023-05-10T06:41:42;4.22;;;1.45;;
76053;SDS011;64752;48.870;9.082;2023-05-10T06:44:07;2.22;;;1.40;;
76053;SDS011;64752;48.870;9.082;2023-05-10T06:46:33;5.87;;;1.70;;
76053;SDS011;64752;48.870;9.082;2023-05-10T06:48:58;2.87;;;1.60;;
76053;SDS011;64752;48.870;9.082;2023-05-10T06:51:24;10.93;;;1.60;;
76053;SDS011;64752;48.870;9.082;2023-05-10T06:53:49;2.23;;;1.43;;
76053;SDS011;64752;48.870;9.082;2023-05-10T06:56:15;4.17;;;1.30;;
76053;SDS011;64752;48.870;9.082;2023-05-10T06:58:40;5.27;;;1.27;;
76053;SDS011;64752;48.870;9.082;2023-05-10T07:01:05;6.23;;;1.20;;
76053;SDS011;64752;48.870;9.082;2023-05-10T07:03:31;1.60;;;1.10;;
76053;SDS011;64752;48.870;9.082;2023-05-10T07:06:02;1.53;;;1.20;;
76053;SDS011;64752;48.870;9.082;2023-05-10T07:08:32;1.20;;;1.10;;
76053;SDS011;64752;48.870;9.082;2023-05-10T07:11:04;3.40;;;1.00;;
76053;SDS011;64752;48.870;9.082;2023-05-10T07:13:32;4.18;;;1.10;;
76053;SDS011;64752;48.870;9.082;2023-05-10T07:15:58;1.60;;;1.03;;
76053;SDS011;64752;48.870;9.082;2023-05-10T07:18:24;3.17;;;1.20;;
76053;SDS011;64752;48.870;9.082;2023-05-10T07:20:50;1.27;;;1.13;;
76053;SDS011;64752;48.870;9.082;2023-05-10T07:23:15;2.20;;;1.10;;
76053;SDS011;64752;48.870;9.082;2023-05-10T07:25:44;2.85;;;1.00;;
76053;SDS011;64752;48.870;9.082;2023-05-10T07:28:10;2.65;;;1.10;;
76053;SDS011;64752;48.870;9.082;2023-05-10T07:30:36;1.20;;;0.80;;
76053;SDS011;64752;48.870;9.082;2023-05-10T07:33:01;0.90;;;0.70;;
76053;SDS011;64752;48.870;9.082;2023-05-10T07:35:27;2.10;;;0.60;;
76053;SDS011;64752;48.870;9.082;2023-05-10T07:37:52;1.30;;;0.70;;
76053;SDS011;64752;48.870;9.082;2023-05-10T07:40:18;2.10;;;0.63;;
76053;SDS011;64752;48.870;9.082;2023-05-10T07:42:43;2.37;;;1.00;;
76053;SDS011;64752;48.870;9.082;2023-05-10T07:45:09;1.27;;;0.70;;
76053;SDS011;64752;48.870;9.082;2023-05-10T07:47:34;2.20;;;0.83;;
76053;SDS011;64752;48.870;9.082;2023-05-10T07:49:59;3.00;;;0.80;;
76053;SDS011;64752;48.870;9.082;2023-05-10T07:52:25;0.87;;;0.77;;
76053;SDS011;64752;48.870;9.082;2023-05-10T07:54:50;2.03;;;1.00;;
76053;SDS011;64752;48.870;9.082;2023-05-10T07:57:16;1.33;;;0.70;;
76053;SDS011;64752;48.870;9.082;2023-05-10T07:59:43;1.33;;;0.80;;
76053;SDS011;64752;48.870;9.082;2023-05-10T08:02:09;1.45;;;0.70;;
76053;SDS011;64752;48.870;9.082;2023-05-10T08:04:34;2.33;;;0.70;;
76053;SDS011;64752;48.870;9.082;2023-05-10T08:07:00;0.40;;;0.40;;
76053;SDS011;64752;48.870;9.082;2023-05-10T08:09:25;1.33;;;0.70;;
76053;SDS011;64752;48.870;9.082;2023-05-10T08:11:50;0.67;;;0.50;;
76053;SDS011;64752;48.870;9.082;2023-05-10T08:14:16;1.57;;;0.60;;
76053;SDS011;64752;48.870;9.082;2023-05-10T08:16:42;1.08;;;0.55;;
76053;SDS011;64752;48.870;9.082;2023-05-10T08:19:07;1.27;;;0.70;;
76053;SDS011;64752;48.870;9.082;2023-05-10T08:21:32;1.20;;;0.87;;
76053;SDS011;64752;48.870;9.082;2023-05-10T08:23:58;0.73;;;0.40;;
76053;SDS011;64752;48.870;9.082;2023-05-10T08:26:23;1.03;;;0.47;;
76053;SDS011;64752;48.870;9.082;2023-05-10T08:28:49;0.63;;;0.50;;
76053;SDS011;64752;48.870;9.082;2023-05-10T08:31:14;0.83;;;0.50;;
76053;SDS011;64752;48.870;9.082;2023-05-10T08:33:41;2.40;;;0.75;;
76053;SDS011;64752;48.870;9.082;2023-05-10T08:36:06;1.30;;;0.47;;
76053;SDS011;64752;48.870;9.082;2023-05-10T08:38:32;1.50;;;0.40;;
76053;SDS011;64752;48.870;9.082;2023-05-10T08:40:57;0.37;;;0.37;;
76053;SDS011;64752;48.870;9.082;2023-05-10T08:43:26;0.50;;;0.40;;
76053;SDS011;64752;48.870;9.082;2023-05-10T08:45:53;2.42;;;0.50;;
76053;SDS011;64752;48.870;9.082;2023-05-10T08:48:19;2.40;;;0.40;;
76053;SDS011;64752;48.870;9.082;2023-05-10T08:50:47;1.05;;;0.50;;
76053;SDS011;64752;48.870;9.082;2023-05-10T08:53:15;1.65;;;0.32;;
76053;SDS011;64752;48.870;9.082;2023-05-10T08:55:41;0.43;;;0.30;;
76053;SDS011;64752;48.870;9.082;2023-05-10T08:58:08;0.77;;;0.50;;
76053;SDS011;64752;48.870;9.082;2023-05-10T09:00:34;0.40;;;0.40;;
76053;SDS011;64752;48.870;9.082;2023-05-10T09:03:00;1.13;;;0.55;;
76053;SDS011;64752;48.870;9.082;2023-05-10T09:05:27;1.75;;;0.43;;
76053;SDS011;64752;48.870;9.082;2023-05-10T09:07:53;4.73;;;0.70;;
76053;SDS011;64752;48.870;9.082;2023-05-10T09:10:18;0.57;;;0.50;;
76053;SDS011;64752;48.870;9.082;2023-05-10T09:12:45;0.30;;;0.30;;
76053;SDS011;64752;48.870;9.082;2023-05-10T09:15:11;1.03;;;0.40;;
76053;SDS011;64752;48.870;9.082;2023-05-10T09:17:39;0.63;;;0.43;;
76053;SDS011;64752;48.870;9.082;2023-05-10T09:20:06;1.83;;;0.40;;
76053;SDS011;64752;48.870;9.082;2023-05-10T09:22:32;0.30;;;0.20;;
76053;SDS011;64752;48.870;9.082;2023-05-10T09:25:03;0.30;;;0.30;;
76053;SDS011;64752;48.870;9.082;2023-05-10T09:27:30;3.92;;;0.80;;
76053;SDS011;64752;48.870;9.082;2023-05-10T09:29:55;1.93;;;0.70;;
76053;SDS011;64752;48.870;9.082;2023-05-10T09:32:20;4.37;;;0.50;;
76053;SDS011;64752;48.870;9.082;2023-05-10T09:34:46;0.30;;;0.30;;
76053;SDS011;64752;48.870;9.082;2023-05-10T09:37:14;1.70;;;0.80;;
76053;SDS011;64752;48.870;9.082;2023-05-10T09:39:40;0.50;;;0.30;;
76053;SDS011;64752;48.870;9.082;2023-05-10T09:42:07;2.35;;;0.60;;
76053;SDS011;64752;48.870;9.082;2023-05-10T09:44:34;1.58;;;0.68;;
76053;SDS011;64752;48.870;9.082;2023-05-10T09:47:00;0.60;;;0.50;;
76053;SDS011;64752;48.870;9.082;2023-05-10T09:49:26;1.05;;;0.55;;
76053;SDS011;64752;48.870;9.082;2023-05-10T09:54:33;1.00;;;0.52;;
76053;SDS011;64752;48.870;9.082;2023-05-10T09:56:59;1.38;;;0.77;;
76053;SDS011;64752;48.870;9.082;2023-05-10T09:59:26;3.78;;;0.52;;
76053;SDS011;64752;48.870;9.082;2023-05-10T10:01:59;3.13;;;0.73;;
76053;SDS011;64752;48.870;9.082;2023-05-10T10:04:25;0.32;;;0.30;;
76053;SDS011;64752;48.870;9.082;2023-05-10T10:07:03;3.28;;;0.50;;
76053;SDS011;64752;48.870;9.082;2023-05-10T10:09:29;1.83;;;0.60;;
76053;SDS011;64752;48.870;9.082;2023-05-10T10:11:55;0.60;;;0.60;;
76053;SDS011;64752;48.870;9.082;2023-05-10T10:14:22;1.43;;;0.70;;
76053;SDS011;64752;48.870;9.082;2023-05-10T10:16:49;1.70;;;0.70;;
76053;SDS011;64752;48.870;9.082;2023-05-10T10:19:16;1.13;;;0.47;;
76053;SDS011;64752;48.870;9.082;2023-05-10T10:21:43;0.70;;;0.40;;
76053;SDS011;64752;48.870;9.082;2023-05-10T10:24:08;0.70;;;0.40;;
76053;SDS011;64752;48.870;9.082;2023-05-10T10:26:33;0.97;;;0.30;;
76053;SDS011;64752;48.870;9.082;2023-05-10T10:31:45;2.05;;;0.40;;
76053;SDS011;64752;48.870;9.082;2023-05-10T10:34:22;0.47;;;0.40;;
76053;SDS011;64752;48.870;9.082;2023-05-10T10:36:52;1.17;;;0.30;;
76053;SDS011;64752;48.870;9.082;2023-05-10T10:54:59;1.02;;;0.45;;
76053;SDS011;64752;48.870;9.082;2023-05-10T11:02:45;1.30;;;0.50;;
76053;SDS011;64752;48.870;9.082;2023-05-10T11:07:54;1.08;;;0.65;;
76053;SDS011;64752;48.870;9.082;2023-05-10T11:10:24;0.50;;;0.50;;
76053;SDS011;64752;48.870;9.082;2023-05-10T11:12:53;2.05;;;0.47;;
76053;SDS011;64752;48.870;9.082;2023-05-10T11:15:29;1.25;;;0.60;;
76053;SDS011;64752;48.870;9.082;2023-05-10T11:17:58;1.85;;;0.70;;
76053;SDS011;64752;48.870;9.082;2023-05-10T11:20:27;0.88;;;0.68;;
76053;SDS011;64752;48.870;9.082;2023-05-10T11:22:59;1.38;;;0.60;;
76053;SDS011;64752;48.870;9.082;2023-05-10T11:25:40;1.30;;;0.60;;
76053;SDS011;64752;48.870;9.082;2023-05-10T11:28:09;1.20;;;0.75;;
76053;SDS011;64752;48.870;9.082;2023-05-10T11:30:36;1.48;;;0.57;;
76053;SDS011;64752;48.870;9.082;2023-05-10T11:33:03;4.82;;;1.00;;
76053;SDS011;64752;48.870;9.082;2023-05-10T11:35:28;3.90;;;0.90;;
76053;SDS011;64752;48.870;9.082;2023-05-10T11:37:54;3.80;;;1.00;;
76053;SDS011;64752;48.870;9.082;2023-05-10T11:40:21;3.63;;;0.93;;
76053;SDS011;64752;48.870;9.082;2023-05-10T11:42:49;1.98;;;0.95;;
76053;SDS011;64752;48.870;9.082;2023-05-10T11:45:15;1.57;;;0.80;;
76053;SDS011;64752;48.870;9.082;2023-05-10T11:47:40;3.70;;;0.90;;
76053;SDS011;64752;48.870;9.082;2023-05-10T11:50:08;3.00;;;0.95;;
76053;SDS011;64752;48.870;9.082;2023-05-10T11:52:37;2.28;;;0.77;;
76053;SDS011;64752;48.870;9.082;2023-05-10T11:55:02;2.47;;;0.93;;
76053;SDS011;64752;48.870;9.082;2023-05-10T11:57:28;3.63;;;0.90;;
76053;SDS011;64752;48.870;9.082;2023-05-10T11:59:54;3.57;;;0.80;;
76053;SDS011;64752;48.870;9.082;2023-05-10T12:02:21;3.00;;;0.73;;
76053;SDS011;64752;48.870;9.082;2023-05-10T12:04:46;2.83;;;0.80;;
76053;SDS011;64752;48.870;9.082;2023-05-10T12:07:12;4.47;;;0.90;;
76053;SDS011;64752;48.870;9.082;2023-05-10T12:09:42;3.73;;;1.00;;
76053;SDS011;64752;48.870;9.082;2023-05-10T12:12:08;1.33;;;0.63;;
76053;SDS011;64752;48.870;9.082;2023-05-10T12:14:34;2.33;;;0.60;;
76053;SDS011;64752;48.870;9.082;2023-05-10T12:17:00;0.80;;;0.57;;
76053;SDS011;64752;48.870;9.082;2023-05-10T12:19:26;5.60;;;0.83;;
76053;SDS011;64752;48.870;9.082;2023-05-10T12:21:51;1.80;;;0.70;;
76053;SDS011;64752;48.870;9.082;2023-05-10T12:24:16;0.50;;;0.50;;
76053;SDS011;64752;48.870;9.082;2023-05-10T12:26:43;1.88;;;0.52;;
76053;SDS011;64752;48.870;9.082;2023-05-10T12:29:14;1.70;;;0.70;;
76053;SDS011;64752;48.870;9.082;2023-05-10T12:34:26;2.10;;;0.50;;
76053;SDS011;64752;48.870;9.082;2023-05-10T12:36:56;2.17;;;0.70;;
76053;SDS011;64752;48.870;9.082;2023-05-10T12:39:23;2.03;;;0.80;;
76053;SDS011;64752;48.870;9.082;2023-05-10T12:44:14;2.20;;;0.70;;
76053;SDS011;64752;48.870;9.082;2023-05-10T12:46:39;1.50;;;0.70;;
76053;SDS011;64752;48.870;9.082;2023-05-10T12:49:05;3.40;;;0.60;;
76053;SDS011;64752;48.870;9.082;2023-05-10T12:51:30;3.90;;;1.00;;
76053;SDS011;64752;48.870;9.082;2023-05-10T12:53:56;2.00;;;0.80;;
76053;SDS011;64752;48.870;9.082;2023-05-10T12:56:21;2.33;;;0.83;;
76053;SDS011;64752;48.870;9.082;2023-05-10T12:58:46;2.63;;;0.70;;
76053;SDS011;64752;48.870;9.082;2023-05-10T13:01:13;1.02;;;0.50;;
76053;SDS011;64752;48.870;9.082;2023-05-10T13:03:38;3.15;;;0.90;;
76053;SDS011;64752;48.870;9.082;2023-05-10T13:06:04;2.97;;;0.83;;
76053;SDS011;64752;48.870;9.082;2023-05-10T13:08:30;1.40;;;0.77;;
76053;SDS011;64752;48.870;9.082;2023-05-10T13:10:58;5.00;;;0.90;;
76053;SDS011;64752;48.870;9.082;2023-05-10T13:13:27;4.50;;;1.00;;
76053;SDS011;64752;48.870;9.082;2023-05-10T13:15:53;4.50;;;0.70;;
76053;SDS011;64752;48.870;9.082;2023-05-10T13:18:18;1.17;;;0.60;;
76053;SDS011;64752;48.870;9.082;2023-05-10T13:20:43;1.33;;;0.60;;
76053;SDS011;64752;48.870;9.082;2023-05-10T13:23:09;4.10;;;0.93;;
76053;SDS011;64752;48.870;9.082;2023-05-10T13:25:35;2.50;;;0.90;;
76053;SDS011;64752;48.870;9.082;2023-05-10T13:28:01;1.53;;;0.63;;
76053;SDS011;64752;48.870;9.082;2023-05-10T13:30:27;1.97;;;0.80;;
76053;SDS011;64752;48.870;9.082;2023-05-10T13:35:18;1.77;;;0.60;;
76053;SDS011;64752;48.870;9.082;2023-05-10T13:37:44;5.40;;;1.00;;
76053;SDS011;64752;48.870;9.082;2023-05-10T13:40:09;2.47;;;0.90;;
76053;SDS011;64752;48.870;9.082;2023-05-10T13:42:35;3.97;;;0.87;;
76053;SDS011;64752;48.870;9.082;2023-05-10T13:45:01;1.83;;;0.70;;
76053;SDS011;64752;48.870;9.082;2023-05-10T13:47:29;4.65;;;0.57;;
76053;SDS011;64752;48.870;9.082;2023-05-10T13:49:55;1.70;;;0.73;;
76053;SDS011;64752;48.870;9.082;2023-05-10T13:52:22;1.67;;;0.70;;
76053;SDS011;64752;48.870;9.082;2023-05-10T13:54:47;1.57;;;0.60;;
76053;SDS011;64752;48.870;9.082;2023-05-10T13:57:13;2.63;;;0.80;;
76053;SDS011;64752;48.870;9.082;2023-05-10T13:59:38;2.37;;;0.77;;
76053;SDS011;64752;48.870;9.082;2023-05-10T14:02:04;2.67;;;0.70;;
76053;SDS011;64752;48.870;9.082;2023-05-10T14:04:30;1.45;;;0.73;;
76053;SDS011;64752;48.870;9.082;2023-05-10T14:06:56;3.35;;;0.70;;
76053;SDS011;64752;48.870;9.082;2023-05-10T14:09:22;4.40;;;0.50;;
76053;SDS011;64752;48.870;9.082;2023-05-10T14:11:47;3.33;;;0.77;;
76053;SDS011;64752;48.870;9.082;2023-05-10T14:14:12;3.37;;;0.53;;
76053;SDS011;64752;48.870;9.082;2023-05-10T14:16:40;1.33;;;0.47;;
76053;SDS011;64752;48.870;9.082;2023-05-10T14:19:09;1.38;;;0.50;;
76053;SDS011;64752;48.870;9.082;2023-05-10T14:21:35;0.97;;;0.63;;
76053;SDS011;64752;48.870;9.082;2023-05-10T14:24:00;2.20;;;0.70;;
76053;SDS011;64752;48.870;9.082;2023-05-10T14:26:25;3.10;;;0.60;;
76053;SDS011;64752;48.870;9.082;2023-05-10T14:28:52;1.90;;;0.80;;
76053;SDS011;64752;48.870;9.082;2023-05-10T14:31:17;2.10;;;0.70;;
76053;SDS011;64752;48.870;9.082;2023-05-10T14:33:45;1.45;;;0.57;;
76053;SDS011;64752;48.870;9.082;2023-05-10T14:36:10;1.97;;;0.80;;
76053;SDS011;64752;48.870;9.082;2023-05-10T14:38:36;2.10;;;0.80;;
76053;SDS011;64752;48.870;9.082;2023-05-10T14:41:01;2.00;;;0.70;;
76053;SDS011;64752;48.870;9.082;2023-05-10T14:43:26;3.00;;;0.80;;
76053;SDS011;64752;48.870;9.082;2023-05-10T14:45:53;1.95;;;0.73;;
76053;SDS011;64752;48.870;9.082;2023-05-10T14:48:18;1.60;;;0.60;;
76053;SDS011;64752;48.870;9.082;2023-05-10T14:50:44;3.17;;;0.80;;
76053;SDS011;64752;48.870;9.082;2023-05-10T14:53:11;1.85;;;0.90;;
76053;SDS011;64752;48.870;9.082;2023-05-10T14:55:36;3.87;;;0.93;;
76053;SDS011;64752;48.870;9.082;2023-05-10T14:58:02;4.00;;;0.83;;
76053;SDS011;64752;48.870;9.082;2023-05-10T15:00:28;1.85;;;0.85;;
76053;SDS011;64752;48.870;9.082;2023-05-10T15:02:54;1.27;;;0.60;;
76053;SDS011;64752;48.870;9.082;2023-05-10T15:05:20;1.10;;;0.60;;
76053;SDS011;64752;48.870;9.082;2023-05-10T15:07:45;3.17;;;0.73;;
76053;SDS011;64752;48.870;9.082;2023-05-10T15:10:11;2.37;;;0.90;;
76053;SDS011;64752;48.870;9.082;2023-05-10T15:12:36;1.87;;;0.70;;
76053;SDS011;64752;48.870;9.082;2023-05-10T15:15:02;1.65;;;0.60;;
76053;SDS011;64752;48.870;9.082;2023-05-10T15:17:28;0.40;;;0.38;;
76053;SDS011;64752;48.870;9.082;2023-05-10T15:19:54;1.13;;;0.60;;
76053;SDS011;64752;48.870;9.082;2023-05-10T15:22:19;2.63;;;0.60;;
76053;SDS011;64752;48.870;9.082;2023-05-10T15:24:46;0.90;;;0.60;;
76053;SDS011;64752;48.870;9.082;2023-05-10T15:27:11;5.67;;;0.80;;
76053;SDS011;64752;48.870;9.082;2023-05-10T15:29:36;0.43;;;0.43;;
76053;SDS011;64752;48.870;9.082;2023-05-10T15:32:02;1.13;;;0.40;;
76053;SDS011;64752;48.870;9.082;2023-05-10T15:34:28;1.90;;;0.57;;
76053;SDS011;64752;48.870;9.082;2023-05-10T15:36:53;1.83;;;0.83;;
76053;SDS011;64752;48.870;9.082;2023-05-10T15:39:19;4.90;;;0.80;;
76053;SDS011;64752;48.870;9.082;2023-05-10T15:41:44;7.50;;;0.70;;
76053;SDS011;64752;48.870;9.082;2023-05-10T15:44:10;1.53;;;0.70;;
76053;SDS011;64752;48.870;9.082;2023-05-10T15:46:35;0.83;;;0.63;;
76053;SDS011;64752;48.870;9.082;2023-05-10T15:51:27;3.47;;;0.80;;